createdAt,value
2024-03-13T00:00:09.352Z,6.04
2024-03-13T00:01:09.457Z,6.06
2024-03-13T00:02:09.403Z,6.06
2024-03-13T00:03:09.308Z,6.05
2024-03-13T00:04:09.315Z,6.05
2024-03-13T00:05:09.267Z,6.05
2024-03-13T00:06:09.259Z,6.05
2024-03-13T00:07:09.303Z,6.05
2024-03-13T00:08:09.266Z,6.05
2024-03-13T00:09:09.232Z,6.05
2024-03-13T00:10:09.242Z,6.06
2024-03-13T00:11:09.257Z,6.07
2024-03-13T00:12:09.175Z,6.09
2024-03-13T00:13:09.205Z,6.11
2024-03-13T00:14:09.153Z,6.12
2024-03-13T00:15:09.146Z,6.13
2024-03-13T00:16:09.151Z,6.13
2024-03-13T00:17:09.126Z,6.14
2024-03-13T00:18:09.231Z,6.15
2024-03-13T00:19:09.136Z,6.16
2024-03-13T00:20:09.080Z,6.18
2024-03-13T00:21:09.070Z,6.18
2024-03-13T00:22:09.076Z,6.20
2024-03-13T00:23:09.061Z,6.22
2024-03-13T00:24:09.052Z,6.22
2024-03-13T00:25:09.060Z,6.22
2024-03-13T00:26:09.041Z,6.21
2024-03-13T00:27:09.015Z,6.19
2024-03-13T00:28:09.074Z,6.18
2024-03-13T00:29:08.971Z,6.16
2024-03-13T00:30:08.967Z,6.15
2024-03-13T00:31:09.094Z,6.14
2024-03-13T00:32:08.941Z,6.12
2024-03-13T00:33:08.965Z,6.12
2024-03-13T00:34:09.039Z,6.12
2024-03-13T00:35:08.928Z,6.13
2024-03-13T00:36:08.904Z,6.13
2024-03-13T00:37:08.966Z,6.13
2024-03-13T00:38:08.888Z,6.14
2024-03-13T00:39:08.875Z,6.15
2024-03-13T00:40:08.869Z,6.16
2024-03-13T00:41:08.842Z,6.17
2024-03-13T00:42:08.800Z,6.16
2024-03-13T00:43:08.872Z,6.13
2024-03-13T00:44:08.799Z,6.10
2024-03-13T00:45:08.758Z,6.09
2024-03-13T00:46:08.791Z,6.08
2024-03-13T00:47:08.730Z,6.06
2024-03-13T00:48:08.805Z,6.03
2024-03-13T00:49:08.809Z,6.00
2024-03-13T00:50:08.745Z,5.99
2024-03-13T00:51:08.681Z,5.99
2024-03-13T00:52:08.693Z,5.98
2024-03-13T00:53:08.664Z,5.98
2024-03-13T00:54:08.676Z,5.98
2024-03-13T00:55:08.649Z,5.99
2024-03-13T00:56:08.619Z,5.99
2024-03-13T00:57:08.614Z,6.00
2024-03-13T00:58:08.668Z,6.00
2024-03-13T00:59:08.608Z,6.01
2024-03-13T01:00:08.579Z,6.02
2024-03-13T01:01:08.592Z,6.00
2024-03-13T01:02:08.561Z,5.95
2024-03-13T01:03:10.960Z,5.91
2024-03-13T01:04:08.539Z,5.87
2024-03-13T01:05:08.549Z,5.84
2024-03-13T01:06:08.496Z,5.81
2024-03-13T01:07:08.804Z,5.78
2024-03-13T01:08:08.553Z,5.78
2024-03-13T01:09:08.452Z,5.77
2024-03-13T01:10:08.488Z,5.76
2024-03-13T01:11:08.440Z,5.77
2024-03-13T01:12:08.474Z,5.78
2024-03-13T01:13:08.423Z,5.79
2024-03-13T01:14:08.400Z,5.80
2024-03-13T01:15:08.400Z,5.82
2024-03-13T01:16:08.421Z,5.84
2024-03-13T01:17:08.378Z,5.84
2024-03-13T01:18:08.384Z,5.84
2024-03-13T01:19:08.343Z,5.84
2024-03-13T01:20:08.316Z,5.85
2024-03-13T01:21:08.293Z,5.85
2024-03-13T01:22:08.309Z,5.85
2024-03-13T01:23:08.281Z,5.86
2024-03-13T01:24:08.258Z,5.88
2024-03-13T01:25:08.271Z,5.91
2024-03-13T01:26:08.237Z,5.93
2024-03-13T01:27:08.274Z,5.96
2024-03-13T01:28:08.253Z,5.97
2024-03-13T01:29:08.194Z,5.98
2024-03-13T01:30:08.181Z,5.98
2024-03-13T01:31:08.262Z,5.97
2024-03-13T01:32:08.164Z,5.96
2024-03-13T01:33:08.145Z,5.95
2024-03-13T01:34:08.163Z,5.96
2024-03-13T01:35:08.153Z,5.97
2024-03-13T01:36:08.109Z,5.98
2024-03-13T01:37:08.203Z,6.00
2024-03-13T01:38:08.088Z,6.02
2024-03-13T01:39:08.070Z,6.03
2024-03-13T01:40:08.061Z,6.03
2024-03-13T01:41:08.063Z,6.03
2024-03-13T01:42:08.030Z,6.03
2024-03-13T01:43:08.027Z,6.02
2024-03-13T01:44:10.966Z,6.01
2024-03-13T01:45:07.999Z,6.00
2024-03-13T01:46:08.088Z,5.99
2024-03-13T01:47:07.985Z,5.99
2024-03-13T01:48:07.996Z,6.00
2024-03-13T01:49:08.021Z,6.01
2024-03-13T01:50:08.007Z,6.01
2024-03-13T01:51:07.921Z,6.00
2024-03-13T01:52:07.928Z,6.00
2024-03-13T01:53:07.889Z,6.00
2024-03-13T01:54:07.881Z,6.01
2024-03-13T01:55:08.343Z,6.01
2024-03-13T01:56:07.846Z,6.02
2024-03-13T01:57:07.875Z,6.02
2024-03-13T01:58:07.928Z,6.02
2024-03-13T01:59:07.805Z,6.02
2024-03-13T02:00:07.958Z,6.03
2024-03-13T02:01:07.943Z,6.02
2024-03-13T02:02:08.052Z,6.00
2024-03-13T02:03:07.780Z,5.97
2024-03-13T02:04:07.785Z,5.94
2024-03-13T02:05:07.726Z,5.90
2024-03-13T02:06:07.764Z,5.84
2024-03-13T02:07:07.782Z,5.78
2024-03-13T02:08:07.673Z,5.73
2024-03-13T02:09:07.685Z,5.71
2024-03-13T02:10:07.733Z,5.70
2024-03-13T02:11:07.695Z,5.71
2024-03-13T02:12:07.640Z,5.73
2024-03-13T02:13:07.812Z,5.74
2024-03-13T02:14:07.655Z,5.73
2024-03-13T02:15:07.610Z,5.70
2024-03-13T02:16:07.678Z,5.67
2024-03-13T02:17:07.604Z,5.65
2024-03-13T02:18:08.812Z,5.65
2024-03-13T02:19:07.664Z,5.65
2024-03-13T02:20:07.541Z,5.65
2024-03-13T02:21:07.537Z,5.66
2024-03-13T02:22:07.531Z,5.68
2024-03-13T02:23:07.505Z,5.70
2024-03-13T02:24:07.493Z,5.71
2024-03-13T02:25:07.509Z,5.72
2024-03-13T02:26:07.469Z,5.74
2024-03-13T02:27:07.448Z,5.75
2024-03-13T02:28:07.436Z,5.76
2024-03-13T02:29:07.439Z,5.77
2024-03-13T02:30:07.421Z,5.78
2024-03-13T02:31:07.443Z,5.79
2024-03-13T02:32:07.379Z,5.80
2024-03-13T02:34:07.373Z,5.80
2024-03-13T02:35:07.334Z,5.80
2024-03-13T02:36:07.335Z,5.81
2024-03-13T02:37:07.412Z,5.81
2024-03-13T02:38:07.302Z,5.81
2024-03-13T02:39:07.283Z,5.81
2024-03-13T02:40:07.329Z,5.81
2024-03-13T02:41:07.256Z,5.81
2024-03-13T02:42:07.252Z,5.81
2024-03-13T02:43:07.344Z,5.80
2024-03-13T02:44:07.239Z,5.77
2024-03-13T02:45:07.196Z,5.73
2024-03-13T02:46:07.277Z,5.68
2024-03-13T02:47:07.168Z,5.63
2024-03-13T02:48:07.204Z,5.60
2024-03-13T02:49:07.207Z,5.58
2024-03-13T02:50:07.134Z,5.58
2024-03-13T02:51:07.156Z,5.58
2024-03-13T02:52:07.150Z,5.60
2024-03-13T02:53:07.107Z,5.62
2024-03-13T02:54:07.108Z,5.65
2024-03-13T02:55:07.101Z,5.67
2024-03-13T02:56:07.101Z,5.69
2024-03-13T02:57:07.059Z,5.70
2024-03-13T02:58:07.067Z,5.71
2024-03-13T02:59:07.044Z,5.72
2024-03-13T03:00:07.012Z,5.72
2024-03-13T03:01:07.075Z,5.73
2024-03-13T03:02:07.847Z,5.73
2024-03-13T03:03:06.972Z,5.73
2024-03-13T03:04:06.979Z,5.73
2024-03-13T03:05:06.952Z,5.73
2024-03-13T03:06:06.919Z,5.71
2024-03-13T03:07:06.954Z,5.66
2024-03-13T03:08:06.924Z,5.62
2024-03-13T03:09:06.895Z,5.59
2024-03-13T03:10:06.945Z,5.57
2024-03-13T03:11:06.890Z,5.55
2024-03-13T03:12:06.856Z,5.55
2024-03-13T03:13:06.877Z,5.55
2024-03-13T03:14:06.841Z,5.55
2024-03-13T03:15:06.831Z,5.55
2024-03-13T03:16:06.823Z,5.55
2024-03-13T03:17:06.798Z,5.56
2024-03-13T03:18:06.817Z,5.57
2024-03-13T03:19:06.835Z,5.58
2024-03-13T03:20:06.774Z,5.58
2024-03-13T03:21:06.744Z,5.57
2024-03-13T03:22:06.755Z,5.56
2024-03-13T03:23:06.709Z,5.55
2024-03-13T03:24:06.744Z,5.56
2024-03-13T03:25:06.772Z,5.57
2024-03-13T03:26:06.691Z,5.58
2024-03-13T03:27:06.689Z,5.59
2024-03-13T03:28:06.687Z,5.60
2024-03-13T03:29:06.647Z,5.62
2024-03-13T03:30:06.645Z,5.63
2024-03-13T03:31:06.658Z,5.63
2024-03-13T03:32:06.616Z,5.63
2024-03-13T03:33:06.666Z,5.64
2024-03-13T03:34:06.655Z,5.63
2024-03-13T03:35:06.579Z,5.59
2024-03-13T03:36:06.596Z,5.53
2024-03-13T03:37:06.605Z,5.48
2024-03-13T03:38:06.545Z,5.45
2024-03-13T03:39:06.512Z,5.43
2024-03-13T03:40:06.562Z,5.41
2024-03-13T03:41:06.473Z,5.39
2024-03-13T03:42:06.477Z,5.38
2024-03-13T03:43:06.490Z,5.38
2024-03-13T03:44:06.446Z,5.38
2024-03-13T03:45:06.456Z,5.40
2024-03-13T03:46:06.460Z,5.41
2024-03-13T03:47:06.413Z,5.43
2024-03-13T03:48:11.190Z,5.45
2024-03-13T03:49:06.415Z,5.47
2024-03-13T03:50:06.376Z,5.49
2024-03-13T03:51:09.017Z,5.51
2024-03-13T03:52:06.410Z,5.52
2024-03-13T03:53:06.326Z,5.52
2024-03-13T03:54:06.350Z,5.53
2024-03-13T03:55:06.355Z,5.53
2024-03-13T03:56:06.293Z,5.52
2024-03-13T03:57:06.273Z,5.52
2024-03-13T03:58:06.307Z,5.54
2024-03-13T03:59:06.235Z,5.57
2024-03-13T04:00:06.266Z,5.57
2024-03-13T04:01:06.290Z,5.57
2024-03-13T04:02:06.326Z,5.58
2024-03-13T04:03:06.211Z,5.59
2024-03-13T04:04:06.200Z,5.60
2024-03-13T04:05:06.188Z,5.62
2024-03-13T04:06:06.163Z,5.63
2024-03-13T04:07:06.173Z,5.62
2024-03-13T04:08:06.238Z,5.62
2024-03-13T04:09:06.118Z,5.62
2024-03-13T04:10:06.126Z,5.62
2024-03-13T04:11:06.128Z,5.63
2024-03-13T04:12:06.126Z,5.63
2024-03-13T04:13:06.168Z,5.63
2024-03-13T04:14:06.067Z,5.63
2024-03-13T04:15:06.318Z,5.63
2024-03-13T04:16:06.265Z,5.63
2024-03-13T04:17:06.057Z,5.63
2024-03-13T04:18:06.096Z,5.64
2024-03-13T04:19:06.053Z,5.65
2024-03-13T04:20:05.978Z,5.66
2024-03-13T04:21:05.972Z,5.66
2024-03-13T04:22:05.970Z,5.66
2024-03-13T04:23:05.926Z,5.67
2024-03-13T04:24:05.941Z,5.68
2024-03-13T04:25:05.956Z,5.68
2024-03-13T04:26:05.913Z,5.67
2024-03-13T04:27:05.929Z,5.67
2024-03-13T04:28:05.884Z,5.67
2024-03-13T04:29:05.868Z,5.67
2024-03-13T04:30:05.847Z,5.66
2024-03-13T04:31:05.913Z,5.65
2024-03-13T04:32:05.933Z,5.63
2024-03-13T04:33:05.854Z,5.62
2024-03-13T04:34:08.450Z,5.60
2024-03-13T04:35:05.910Z,5.60
2024-03-13T04:36:05.799Z,5.60
2024-03-13T04:37:05.831Z,5.60
2024-03-13T04:38:05.968Z,5.59
2024-03-13T04:39:05.800Z,5.57
2024-03-13T04:40:05.794Z,5.55
2024-03-13T04:41:05.758Z,5.54
2024-03-13T04:42:05.822Z,5.53
2024-03-13T04:43:05.771Z,5.52
2024-03-13T05:06:42.632Z,6.61
2024-03-13T05:07:39.770Z,6.17
2024-03-13T05:08:53.768Z,5.87
2024-03-13T05:09:42.134Z,5.71
2024-03-13T05:10:44.435Z,5.61
2024-03-13T05:13:18.988Z,5.56
2024-03-13T05:13:33.761Z,5.53
2024-03-13T05:14:30.889Z,5.52
2024-03-13T05:21:19.509Z,6.64
2024-03-13T05:22:18.316Z,6.20
2024-03-13T05:51:54.386Z,6.60
2024-03-13T05:52:55.353Z,6.14
2024-03-13T05:53:55.295Z,5.82
2024-03-13T05:54:55.300Z,5.61
2024-03-13T05:55:55.266Z,5.48
2024-03-13T05:56:55.216Z,5.41
2024-03-13T05:57:55.242Z,5.38
2024-03-13T05:58:55.197Z,5.36
2024-03-13T05:59:55.192Z,5.36
2024-03-13T06:00:55.258Z,5.34
2024-03-13T06:01:55.237Z,5.33
2024-03-13T06:02:55.160Z,5.32
2024-03-13T06:03:55.247Z,5.31
2024-03-13T06:04:55.134Z,5.31
2024-03-13T06:05:55.110Z,5.31
2024-03-13T06:06:55.229Z,5.31
2024-03-13T06:09:07.483Z,6.51
2024-03-13T06:10:08.294Z,6.05
2024-03-13T06:12:13.302Z,6.49
2024-03-13T06:22:57.174Z,6.43
2024-03-13T06:28:28.026Z,6.47
2024-03-13T06:29:28.180Z,6.03
2024-03-13T06:30:28.227Z,5.75
2024-03-13T06:31:28.097Z,5.60
2024-03-13T06:32:27.929Z,5.53
2024-03-13T06:33:27.937Z,5.50
2024-03-13T06:34:28.067Z,5.50
2024-03-13T06:35:28.029Z,5.50
2024-03-13T06:36:27.903Z,5.50
2024-03-13T06:37:27.924Z,5.49
2024-03-13T06:38:27.856Z,5.48
2024-03-13T06:39:27.823Z,5.47
2024-03-13T06:40:27.926Z,5.46
2024-03-13T06:41:27.827Z,5.45
2024-03-13T06:42:27.871Z,5.45
2024-03-13T06:43:27.880Z,5.46
2024-03-13T06:44:27.767Z,5.47
2024-03-13T06:45:35.062Z,5.47
2024-03-13T06:46:27.990Z,5.48
2024-03-13T06:51:34.904Z,6.67
2024-03-13T06:52:35.832Z,6.22
2024-03-13T06:53:35.672Z,5.92
2024-03-13T06:54:35.628Z,5.73
2024-03-13T06:55:35.728Z,5.61
2024-03-13T06:56:35.611Z,5.54
2024-03-13T06:57:35.584Z,5.49
2024-03-13T06:58:35.594Z,5.46
2024-03-13T06:59:35.580Z,5.44
2024-03-13T07:00:35.585Z,5.43
2024-03-13T07:01:35.627Z,5.43
2024-03-13T07:02:35.549Z,5.41
2024-03-13T07:03:35.511Z,5.36
2024-03-13T07:04:35.543Z,5.31
2024-03-13T07:05:46.187Z,5.26
2024-03-13T07:06:35.581Z,5.21
2024-03-13T07:07:35.539Z,5.19
2024-03-13T07:08:35.487Z,5.18
2024-03-13T07:09:35.453Z,5.17
2024-03-13T07:10:35.466Z,5.16
2024-03-13T07:11:35.543Z,5.16
2024-03-13T07:12:35.428Z,5.16
2024-03-13T07:13:35.422Z,5.14
2024-03-13T07:14:35.464Z,5.11
2024-03-13T07:15:35.404Z,5.09
2024-03-13T07:16:35.454Z,5.09
2024-03-13T07:23:11.461Z,6.24
2024-03-13T07:24:12.447Z,5.80
2024-03-13T07:25:12.200Z,5.52
2024-03-13T07:26:12.169Z,5.37
2024-03-13T07:27:12.172Z,5.29
2024-03-13T07:28:12.131Z,5.24
2024-03-13T07:29:12.062Z,5.22
2024-03-13T07:30:12.060Z,5.21
2024-03-13T07:31:12.078Z,5.22
2024-03-13T07:32:33.079Z,5.24
2024-03-13T07:33:12.048Z,5.25
2024-03-13T07:34:12.120Z,5.24
2024-03-13T07:35:12.067Z,5.24
2024-03-13T07:36:11.985Z,5.25
2024-03-13T07:37:12.025Z,5.26
2024-03-13T07:38:11.948Z,5.28
2024-03-13T07:39:12.907Z,5.30
2024-03-13T07:40:11.966Z,5.31
2024-03-13T07:41:11.896Z,5.30
2024-03-13T07:42:11.876Z,5.30
2024-03-13T07:43:11.930Z,5.30
2024-03-13T07:44:11.855Z,5.31
2024-03-13T07:45:11.839Z,5.31
2024-03-13T07:46:11.864Z,5.31
2024-03-13T07:47:11.816Z,5.32
2024-03-13T07:48:12.024Z,5.33
2024-03-13T07:49:11.837Z,5.34
2024-03-13T07:50:11.753Z,5.35
2024-03-13T07:51:11.767Z,5.34
2024-03-13T07:52:11.812Z,5.32
2024-03-13T07:53:11.739Z,5.29
2024-03-13T07:54:11.712Z,5.27
2024-03-13T07:55:11.772Z,5.25
2024-03-13T07:56:11.679Z,5.26
2024-03-13T07:57:11.720Z,5.27
2024-03-13T07:58:11.845Z,5.29
2024-03-13T07:59:11.653Z,5.30
2024-03-13T08:00:11.703Z,5.29
2024-03-13T08:01:11.752Z,5.28
2024-03-13T08:02:11.848Z,5.26
2024-03-13T08:03:11.630Z,5.26
2024-03-13T08:04:11.652Z,5.27
2024-03-13T08:05:11.576Z,5.29
2024-03-13T09:06:00.867Z,6.95
2024-03-13T09:06:40.913Z,6.50
2024-03-13T09:07:40.687Z,6.19
2024-03-13T09:08:47.131Z,6.02
2024-03-13T09:09:40.664Z,5.91
2024-03-13T09:10:40.760Z,5.84
2024-03-13T09:11:42.108Z,5.81
2024-03-13T09:12:40.610Z,5.80
2024-03-13T09:13:40.603Z,5.81
2024-03-13T09:14:40.577Z,5.82
2024-03-13T09:15:40.541Z,5.84
2024-03-13T09:16:40.564Z,5.84
2024-03-13T09:17:40.664Z,5.85
2024-03-13T09:18:40.632Z,5.86
2024-03-13T09:19:40.520Z,5.88
2024-03-13T09:20:40.528Z,5.90
2024-03-13T09:21:40.470Z,5.92
2024-03-13T09:22:40.487Z,5.94
2024-03-13T09:23:40.500Z,5.94
2024-03-13T09:24:40.452Z,5.95
2024-03-13T09:25:40.439Z,5.96
2024-03-13T09:26:40.438Z,5.97
2024-03-13T09:27:40.448Z,5.99
2024-03-13T09:28:40.384Z,6.01
2024-03-13T09:29:40.405Z,6.03
2024-03-13T09:30:40.363Z,6.04
2024-03-13T09:31:40.408Z,6.06
2024-03-13T09:32:40.408Z,6.07
2024-03-13T09:33:40.488Z,6.09
2024-03-13T09:34:41.209Z,6.08
2024-03-13T09:35:40.333Z,6.07
2024-03-13T09:36:40.329Z,6.07
2024-03-13T09:37:40.323Z,6.07
2024-03-13T09:38:40.266Z,6.08
2024-03-13T09:39:40.228Z,6.09
2024-03-13T09:40:42.841Z,6.11
2024-03-13T09:41:40.252Z,6.13
2024-03-13T09:42:40.219Z,6.15
2024-03-13T09:43:40.212Z,6.16
2024-03-13T09:44:40.219Z,6.16
2024-03-13T09:45:40.151Z,6.16
2024-03-13T09:46:40.151Z,6.16
2024-03-13T09:47:40.276Z,6.16
2024-03-13T09:48:40.214Z,6.17
2024-03-13T09:49:40.118Z,6.18
2024-03-13T09:50:46.931Z,6.20
2024-03-13T09:51:40.132Z,6.21
2024-03-13T09:52:40.096Z,6.23
2024-03-13T09:53:40.094Z,6.24
2024-03-13T09:54:40.048Z,6.26
2024-03-13T09:55:40.033Z,6.27
2024-03-13T09:56:40.042Z,6.28
2024-03-13T09:57:39.996Z,6.29
2024-03-13T09:58:39.998Z,6.31
2024-03-13T09:59:40.131Z,6.33
2024-03-13T10:00:39.974Z,6.35
2024-03-13T10:01:40.005Z,6.37
2024-03-13T10:02:40.784Z,6.39
2024-03-13T10:03:39.962Z,6.41
2024-03-13T10:04:39.947Z,6.41
2024-03-13T10:05:39.913Z,6.42
2024-03-13T10:06:39.876Z,6.43
2024-03-13T10:07:39.893Z,6.44
2024-03-13T10:08:39.902Z,6.45
2024-03-13T10:09:39.852Z,6.47
2024-03-13T10:10:42.196Z,6.49
2024-03-13T10:11:39.911Z,6.50
2024-03-13T10:12:40.793Z,6.51
2024-03-13T10:13:39.858Z,6.52
2024-03-13T10:14:39.801Z,6.53
2024-03-13T10:15:39.853Z,6.55
2024-03-13T10:16:39.825Z,6.56
2024-03-13T10:17:40.025Z,6.58
2024-03-13T10:18:39.848Z,6.59
2024-03-13T10:19:39.818Z,6.61
2024-03-13T10:20:39.770Z,6.64
2024-03-13T10:21:39.720Z,6.66
2024-03-13T10:22:39.720Z,6.68
2024-03-13T10:23:39.753Z,6.68
2024-03-13T10:24:39.692Z,6.69
2024-03-13T10:25:39.691Z,6.70
2024-03-13T10:26:39.724Z,6.72
2024-03-13T10:27:39.638Z,6.74
2024-03-13T10:28:39.615Z,6.76
2024-03-13T10:29:39.656Z,6.78
2024-03-13T10:30:39.718Z,6.80
2024-03-13T10:31:39.587Z,6.81
2024-03-13T10:32:39.643Z,6.83
2024-03-13T10:33:39.752Z,6.85
2024-03-13T10:34:39.563Z,6.87
2024-03-13T10:35:39.661Z,6.89
2024-03-13T10:36:39.603Z,6.91
2024-03-13T10:37:39.521Z,6.93
2024-03-13T10:38:39.576Z,6.95
2024-03-13T10:39:39.544Z,6.96
2024-03-13T10:40:39.536Z,6.97
2024-03-13T10:41:39.470Z,6.99
2024-03-13T10:42:39.479Z,7.00
2024-03-13T10:43:39.509Z,7.02
2024-03-13T10:44:46.970Z,7.04
2024-03-13T10:45:39.430Z,7.06
2024-03-13T10:46:39.385Z,7.08
2024-03-13T10:47:39.456Z,7.09
2024-03-13T10:48:39.506Z,7.10
2024-03-13T10:49:39.394Z,7.11
2024-03-13T10:50:39.516Z,7.12
2024-03-13T10:51:39.323Z,7.13
2024-03-13T10:52:39.321Z,7.13
2024-03-13T10:53:39.343Z,7.14
2024-03-13T10:54:39.296Z,7.15
2024-03-13T10:55:39.274Z,7.16
2024-03-13T10:56:39.400Z,7.17
2024-03-13T10:57:39.225Z,7.18
2024-03-13T10:58:39.276Z,7.19
2024-03-13T10:59:39.416Z,7.19
2024-03-13T11:00:39.229Z,7.20
2024-03-13T11:01:39.214Z,7.21
2024-03-13T11:02:39.239Z,7.22
2024-03-13T11:03:39.158Z,7.23
2024-03-13T11:04:39.144Z,7.24
2024-03-13T11:05:39.306Z,7.25
2024-03-13T11:06:39.130Z,7.25
2024-03-13T11:07:39.115Z,7.26
2024-03-13T11:08:39.113Z,7.26
2024-03-13T11:09:39.076Z,7.26
2024-03-13T11:10:39.102Z,7.27
2024-03-13T11:11:39.133Z,7.28
2024-03-13T11:12:39.128Z,7.29
2024-03-13T11:13:39.297Z,7.29
2024-03-13T11:14:39.058Z,7.29
2024-03-13T11:15:38.994Z,7.29
2024-03-13T11:16:39.724Z,7.29
2024-03-13T11:17:39.128Z,7.28
2024-03-13T11:18:39.258Z,7.28
2024-03-13T11:20:59.832Z,8.38
2024-03-13T11:22:04.178Z,7.94
2024-03-13T11:23:00.685Z,7.65
2024-03-13T11:24:00.759Z,7.50
2024-03-13T11:25:00.713Z,7.41
2024-03-13T11:26:00.660Z,7.37
2024-03-13T11:27:00.705Z,7.35
2024-03-13T11:28:00.621Z,7.32
2024-03-13T11:29:00.676Z,7.31
2024-03-13T11:30:00.668Z,7.30
2024-03-13T11:31:00.568Z,7.30
2024-03-13T11:32:00.543Z,7.31
2024-03-13T11:33:00.704Z,7.32
2024-03-13T11:34:00.585Z,7.33
2024-03-13T11:35:00.567Z,7.34
2024-03-13T11:36:00.591Z,7.35
2024-03-13T11:37:00.500Z,7.36
2024-03-13T11:38:02.818Z,7.36
2024-03-13T11:39:09.639Z,7.37
2024-03-13T11:40:00.620Z,7.37
2024-03-13T11:41:00.495Z,7.38
2024-03-13T11:42:00.456Z,7.39
2024-03-13T11:43:01.710Z,7.39
2024-03-13T11:44:00.418Z,7.40
2024-03-13T11:45:00.538Z,7.40
2024-03-13T11:46:00.414Z,7.41
2024-03-13T11:47:00.395Z,7.42
2024-03-13T11:48:00.388Z,7.43
2024-03-13T11:49:01.805Z,7.44
2024-03-13T11:50:00.467Z,7.44
2024-03-13T11:51:00.366Z,7.45
2024-03-13T11:52:00.322Z,7.45
2024-03-13T11:53:00.463Z,7.46
2024-03-13T11:57:16.721Z,8.63
2024-03-13T12:05:07.838Z,8.72
2024-03-13T12:08:08.383Z,8.76
2024-03-13T12:10:24.626Z,8.78
2024-03-13T12:11:24.113Z,8.34
2024-03-13T12:12:24.068Z,8.04
2024-03-13T12:13:23.988Z,7.87
2024-03-13T12:14:23.971Z,7.78
2024-03-13T12:15:24.034Z,7.72
2024-03-13T12:16:24.022Z,7.70
2024-03-13T12:17:23.924Z,7.68
2024-03-13T12:18:23.934Z,7.68
2024-03-13T12:19:25.930Z,7.68
2024-03-13T12:20:24.013Z,7.69
2024-03-13T12:21:23.978Z,7.70
2024-03-13T12:22:24.190Z,7.71
2024-03-13T12:23:23.904Z,7.72
2024-03-13T12:24:23.945Z,7.73
2024-03-13T12:25:23.909Z,7.74
2024-03-13T12:26:23.874Z,7.75
2024-03-13T12:27:35.557Z,7.75
2024-03-13T12:28:23.777Z,7.75
2024-03-13T12:29:23.892Z,7.76
2024-03-13T12:30:24.118Z,7.76
2024-03-13T12:31:23.785Z,7.77
2024-03-13T12:32:23.841Z,7.79
2024-03-13T12:33:24.769Z,7.80
2024-03-13T12:34:32.845Z,7.81
2024-03-13T12:35:23.742Z,7.82
2024-03-13T12:36:24.563Z,7.83
2024-03-13T12:37:23.706Z,7.84
2024-03-13T12:38:23.664Z,7.85
2024-03-13T12:41:03.832Z,8.99
2024-03-13T12:42:04.977Z,8.55
2024-03-13T12:43:04.946Z,8.27
2024-03-13T12:45:15.723Z,9.05
2024-03-13T12:46:16.700Z,8.61
2024-03-13T12:47:17.392Z,8.32
2024-03-13T12:48:16.843Z,8.16
2024-03-13T12:49:16.634Z,8.07
2024-03-13T12:50:16.758Z,8.03
2024-03-13T12:51:16.711Z,8.01
2024-03-13T12:52:16.645Z,8.00
2024-03-13T12:53:16.627Z,7.99
2024-03-13T12:54:16.860Z,7.99
2024-03-13T12:55:16.590Z,7.99
2024-03-13T12:56:16.618Z,8.00
2024-03-13T12:57:16.655Z,8.00
2024-03-13T12:58:16.552Z,8.00
2024-03-13T12:59:16.523Z,8.01
2024-03-13T13:00:16.800Z,8.02
2024-03-13T13:01:16.512Z,8.03
2024-03-13T13:02:16.474Z,8.03
2024-03-13T13:03:16.532Z,8.04
2024-03-13T13:04:16.462Z,8.04
2024-03-13T13:05:16.437Z,8.04
2024-03-13T13:06:16.530Z,8.05
2024-03-13T13:07:16.442Z,8.06
2024-03-13T13:08:16.402Z,8.06
2024-03-13T13:09:16.496Z,8.07
2024-03-13T13:10:16.411Z,8.08
2024-03-13T13:11:16.468Z,8.08
2024-03-13T13:12:16.366Z,8.09
2024-03-13T13:13:16.354Z,8.10
2024-03-13T13:14:16.364Z,8.10
2024-03-13T13:15:16.388Z,8.10
2024-03-13T13:16:16.312Z,8.10
2024-03-13T13:17:16.301Z,8.10
2024-03-13T13:18:16.422Z,8.11
2024-03-13T13:19:16.292Z,8.12
2024-03-13T13:20:16.249Z,8.14
2024-03-13T13:21:16.301Z,8.16
2024-03-13T13:22:16.228Z,8.17
2024-03-13T13:23:16.216Z,8.18
2024-03-13T13:24:16.249Z,8.19
2024-03-13T13:25:16.218Z,8.20
2024-03-13T13:26:16.180Z,8.21
2024-03-13T13:27:16.279Z,8.21
2024-03-13T13:28:16.132Z,8.22
2024-03-13T13:29:16.179Z,8.23
2024-03-13T13:30:16.224Z,8.24
2024-03-13T13:31:16.103Z,8.24
2024-03-13T13:32:16.113Z,8.25
2024-03-13T13:33:16.158Z,8.26
2024-03-13T13:34:16.107Z,8.27
2024-03-13T13:35:16.088Z,8.30
2024-03-13T13:36:16.075Z,8.32
2024-03-13T13:37:16.034Z,8.35
2024-03-13T13:38:16.030Z,8.38
2024-03-13T13:39:16.098Z,8.42
2024-03-13T13:40:16.020Z,8.44
2024-03-13T13:41:15.983Z,8.48
2024-03-13T13:42:16.022Z,8.51
2024-03-13T13:43:15.977Z,8.55
2024-03-13T13:44:15.964Z,8.58
2024-03-13T13:45:16.088Z,8.61
2024-03-13T13:46:15.916Z,8.64
2024-03-13T13:47:15.890Z,8.67
2024-03-13T13:48:15.943Z,8.70
2024-03-13T13:49:16.052Z,8.73
2024-03-13T13:50:15.970Z,8.75
2024-03-13T13:51:15.928Z,8.76
2024-03-13T13:52:15.852Z,8.76
2024-03-13T13:53:15.822Z,8.76
2024-03-13T13:54:15.848Z,8.76
2024-03-13T13:55:15.807Z,8.77
2024-03-13T13:56:15.839Z,8.78
2024-03-13T13:57:15.859Z,8.80
2024-03-13T13:58:15.779Z,8.82
2024-03-13T13:59:15.769Z,8.85
2024-03-13T14:00:15.750Z,8.89
2024-03-13T14:01:15.824Z,8.93
2024-03-13T14:02:15.705Z,8.97
2024-03-13T14:03:15.758Z,8.99
2024-03-13T14:04:15.690Z,9.01
2024-03-13T14:05:15.678Z,9.02
2024-03-13T14:06:15.718Z,9.03
2024-03-13T14:07:15.652Z,9.04
2024-03-13T14:08:15.643Z,9.04
2024-03-13T14:09:15.785Z,9.05
2024-03-13T14:10:15.616Z,9.05
2024-03-13T14:11:15.631Z,9.05
2024-03-13T14:12:15.698Z,9.06
2024-03-13T14:13:15.572Z,9.06
2024-03-13T14:14:15.594Z,9.06
2024-03-13T14:15:15.607Z,9.06
2024-03-13T14:16:15.555Z,9.06
2024-03-13T14:17:15.551Z,9.06
2024-03-13T14:18:15.995Z,9.05
2024-03-13T14:19:15.610Z,9.04
2024-03-13T14:20:15.489Z,9.04
2024-03-13T14:21:15.502Z,9.04
2024-03-13T14:22:15.498Z,9.04
2024-03-13T14:23:15.458Z,9.04
2024-03-13T14:24:15.439Z,9.04
2024-03-13T14:25:15.415Z,9.04
2024-03-13T14:26:15.436Z,9.04
2024-03-13T14:27:15.459Z,9.04
2024-03-13T14:28:15.391Z,9.03
2024-03-13T14:29:15.356Z,9.02
2024-03-13T14:30:15.432Z,9.01
2024-03-13T14:31:15.367Z,9.00
2024-03-13T14:32:15.333Z,8.99
2024-03-13T14:33:15.411Z,8.98
2024-03-13T14:34:15.315Z,8.97
2024-03-13T14:35:15.314Z,8.97
2024-03-13T14:36:15.434Z,8.96
2024-03-13T14:37:15.282Z,8.96
2024-03-13T14:38:15.294Z,8.96
2024-03-13T14:39:15.367Z,8.96
2024-03-13T14:40:15.236Z,8.96
2024-03-13T14:41:15.198Z,8.95
2024-03-13T14:42:18.531Z,8.95
2024-03-13T14:43:15.311Z,8.95
2024-03-13T14:44:15.201Z,8.94
2024-03-13T14:45:15.333Z,8.94
2024-03-13T14:46:15.222Z,8.94
2024-03-13T14:47:15.152Z,8.93
2024-03-13T14:48:15.169Z,8.92
2024-03-13T14:49:15.305Z,8.91
2024-03-13T14:50:15.092Z,8.90
2024-03-13T14:51:15.146Z,8.90
2024-03-13T14:52:15.107Z,8.89
2024-03-13T14:53:15.068Z,8.89
2024-03-13T14:54:15.112Z,8.88
2024-03-13T14:55:15.028Z,8.87
2024-03-13T14:56:15.012Z,8.86
2024-03-13T14:57:15.048Z,8.86
2024-03-13T14:58:14.994Z,8.86
2024-03-13T14:59:14.984Z,8.85
2024-03-13T15:00:15.062Z,8.85
2024-03-13T15:01:14.973Z,8.85
2024-03-13T15:02:14.943Z,8.85
2024-03-13T15:03:14.981Z,8.85
2024-03-13T15:04:14.926Z,8.85
2024-03-13T15:05:14.913Z,8.85
2024-03-13T15:06:14.964Z,8.85
2024-03-13T15:07:15.268Z,8.85
2024-03-13T15:08:14.861Z,8.85
2024-03-13T15:09:14.901Z,8.86
2024-03-13T15:10:14.837Z,8.86
2024-03-13T15:11:14.864Z,8.87
2024-03-13T15:12:16.327Z,8.87
2024-03-13T15:13:14.794Z,8.88
2024-03-13T15:14:14.798Z,8.88
2024-03-13T15:15:14.862Z,8.88
2024-03-13T15:16:14.773Z,8.88
2024-03-13T15:17:15.172Z,8.88
2024-03-13T15:18:14.787Z,8.88
2024-03-13T15:19:14.740Z,8.88
2024-03-13T15:20:14.822Z,8.88
2024-03-13T15:21:14.775Z,8.88
2024-03-13T15:22:14.691Z,8.89
2024-03-13T15:23:14.669Z,8.89
2024-03-13T15:24:14.766Z,8.88
2024-03-13T15:25:14.691Z,8.89
2024-03-13T15:26:14.665Z,8.89
2024-03-13T15:27:14.670Z,8.89
2024-03-13T15:28:14.607Z,8.89
2024-03-13T15:29:14.592Z,8.90
2024-03-13T15:30:16.414Z,8.90
2024-03-13T15:31:14.570Z,8.89
2024-03-13T15:32:14.609Z,8.90
2024-03-13T15:33:14.669Z,8.90
2024-03-13T15:34:14.524Z,8.90
2024-03-13T15:35:14.518Z,8.90
2024-03-13T15:36:14.569Z,8.91
2024-03-13T15:37:14.508Z,8.91
2024-03-13T15:38:14.494Z,8.91
2024-03-13T15:39:14.504Z,8.91
2024-03-13T15:40:14.583Z,8.91
2024-03-13T15:41:14.441Z,8.91
2024-03-13T15:42:14.540Z,8.90
2024-03-13T15:43:14.483Z,8.90
2024-03-13T15:44:14.392Z,8.90
2024-03-13T15:45:14.834Z,8.90
2024-03-13T15:46:14.384Z,8.90
2024-03-13T15:47:14.353Z,8.89
2024-03-13T15:48:14.462Z,8.89
2024-03-13T15:49:14.378Z,8.89
2024-03-13T15:50:24.413Z,8.89
2024-03-13T15:51:14.434Z,8.88
2024-03-13T15:52:14.322Z,8.88
2024-03-13T15:53:14.304Z,8.88
2024-03-13T15:54:14.306Z,8.88
2024-03-13T15:55:14.276Z,8.88
2024-03-13T15:56:14.244Z,8.88
2024-03-13T15:57:14.291Z,8.87
2024-03-13T15:58:14.224Z,8.86
2024-03-13T15:59:14.215Z,8.86
2024-03-13T16:00:14.233Z,8.85